createdAt,value
2023-05-18T00:02:16.155Z,3.60
2023-05-18T00:04:43.414Z,2.95
2023-05-18T00:07:10.427Z,3.10
2023-05-18T00:09:39.070Z,3.13
2023-05-18T00:12:06.407Z,3.05
2023-05-18T00:14:33.262Z,3.20
2023-05-18T00:17:01.846Z,3.33
2023-05-18T00:19:30.141Z,3.25
2023-05-18T00:21:57.615Z,2.78
2023-05-18T00:24:25.028Z,3.05
2023-05-18T00:26:52.007Z,2.88
2023-05-18T00:29:18.733Z,2.85
2023-05-18T00:31:48.339Z,3.30
2023-05-18T00:34:16.150Z,3.22
2023-05-18T00:36:43.130Z,3.00
2023-05-18T00:39:12.459Z,3.35
2023-05-18T00:41:39.848Z,2.88
2023-05-18T00:44:06.813Z,3.25
2023-05-18T00:46:33.827Z,3.53
2023-05-18T00:49:02.194Z,3.22
2023-05-18T00:51:29.910Z,3.08
2023-05-18T00:54:00.243Z,3.08
2023-05-18T00:56:28.334Z,2.60
2023-05-18T00:58:57.216Z,3.28
2023-05-18T01:01:34.825Z,2.97
2023-05-18T01:04:03.148Z,2.70
2023-05-18T01:06:41.192Z,2.70
2023-05-18T01:09:10.189Z,2.60
2023-05-18T01:12:04.512Z,3.40
2023-05-18T01:14:46.744Z,2.25
2023-05-18T01:17:29.277Z,3.00
2023-05-18T01:19:55.991Z,2.70
2023-05-18T01:22:38.935Z,3.28
2023-05-18T01:25:24.297Z,2.67
2023-05-18T01:27:51.353Z,3.35
2023-05-18T01:30:18.765Z,3.08
2023-05-18T01:32:47.165Z,2.50
2023-05-18T01:35:14.163Z,2.83
2023-05-18T01:37:41.017Z,3.03
2023-05-18T01:40:09.298Z,3.72
2023-05-18T01:42:43.713Z,2.88
2023-05-18T01:45:21.493Z,3.65
2023-05-18T01:47:49.423Z,2.90
2023-05-18T01:50:29.011Z,3.00
2023-05-18T01:53:12.574Z,2.70
2023-05-18T01:55:40.882Z,3.50
2023-05-18T01:58:09.142Z,3.03
2023-05-18T02:00:36.641Z,2.40
2023-05-18T02:03:03.810Z,3.03
2023-05-18T02:05:30.660Z,2.78
2023-05-18T02:07:58.103Z,2.67
2023-05-18T02:10:24.740Z,2.90
2023-05-18T02:12:52.981Z,2.90
2023-05-18T02:15:23.455Z,2.90
2023-05-18T02:17:50.729Z,3.28
2023-05-18T02:20:18.607Z,3.28
2023-05-18T02:22:46.418Z,2.55
2023-05-18T02:25:13.358Z,3.25
2023-05-18T02:27:40.839Z,3.40
2023-05-18T02:30:09.009Z,2.97
2023-05-18T02:32:39.202Z,2.80
2023-05-18T02:35:08.376Z,2.60
2023-05-18T02:37:39.594Z,2.88
2023-05-18T02:40:11.173Z,3.15
2023-05-18T02:42:38.077Z,3.22
2023-05-18T02:45:05.238Z,3.13
2023-05-18T02:47:33.285Z,3.30
2023-05-18T02:50:00.241Z,2.90
2023-05-18T02:52:27.598Z,3.25
2023-05-18T02:54:58.593Z,3.22
2023-05-18T02:57:46.869Z,3.33
2023-05-18T03:00:16.838Z,3.40
2023-05-18T03:02:48.505Z,3.67
2023-05-18T03:05:16.606Z,3.55
2023-05-18T03:07:50.716Z,3.38
2023-05-18T03:10:19.671Z,3.42
2023-05-18T03:12:47.572Z,3.10
2023-05-18T03:15:16.168Z,3.78
2023-05-18T03:17:43.427Z,3.00
2023-05-18T03:20:19.916Z,3.10
2023-05-18T03:22:46.702Z,2.90
2023-05-18T03:25:15.061Z,3.08
2023-05-18T03:27:42.133Z,2.95
2023-05-18T03:30:09.626Z,2.97
2023-05-18T03:32:37.310Z,3.13
2023-05-18T03:35:05.605Z,2.63
2023-05-18T03:37:32.417Z,3.22
2023-05-18T03:40:00.829Z,3.17
2023-05-18T03:42:30.911Z,3.15
2023-05-18T03:44:57.741Z,3.75
2023-05-18T03:47:24.790Z,3.05
2023-05-18T03:49:51.485Z,3.25
2023-05-18T03:52:22.236Z,3.50
2023-05-18T03:54:49.779Z,3.45
2023-05-18T03:57:19.475Z,3.35
2023-05-18T03:59:46.370Z,3.03
2023-05-18T04:02:13.338Z,2.92
2023-05-18T04:04:46.034Z,3.33
2023-05-18T04:07:16.675Z,3.08
2023-05-18T04:09:44.318Z,3.42
2023-05-18T04:12:11.332Z,2.97
2023-05-18T04:14:38.112Z,3.15
2023-05-18T04:17:06.396Z,3.40
2023-05-18T04:19:34.744Z,3.22
2023-05-18T04:22:04.931Z,3.15
2023-05-18T04:24:32.923Z,2.97
2023-05-18T04:27:00.947Z,3.30
2023-05-18T04:29:29.515Z,3.33
2023-05-18T04:32:01.006Z,2.95
2023-05-18T04:34:31.535Z,3.90
2023-05-18T04:36:59.532Z,2.97
2023-05-18T04:39:27.381Z,3.45
2023-05-18T04:41:58.471Z,3.88
2023-05-18T04:44:32.266Z,3.83
2023-05-18T04:47:00.565Z,3.38
2023-05-18T04:49:28.361Z,3.28
2023-05-18T04:51:56.523Z,3.70
2023-05-18T04:54:24.221Z,3.97
2023-05-18T04:56:52.080Z,3.70
2023-05-18T04:59:20.916Z,3.40
2023-05-18T05:01:47.857Z,3.40
2023-05-18T05:04:14.623Z,3.17
2023-05-18T05:06:41.386Z,3.08
2023-05-18T05:09:08.129Z,3.65
2023-05-18T05:11:37.078Z,2.97
2023-05-18T05:14:03.832Z,2.75
2023-05-18T05:16:30.984Z,2.83
2023-05-18T05:18:57.736Z,2.78
2023-05-18T05:21:25.381Z,2.80
2023-05-18T05:23:52.955Z,2.83
2023-05-18T05:26:21.520Z,3.47
2023-05-18T05:28:48.591Z,2.65
2023-05-18T05:31:15.694Z,2.95
2023-05-18T05:33:45.346Z,2.97
2023-05-18T05:36:13.150Z,3.08
2023-05-18T05:38:39.895Z,3.25
2023-05-18T05:41:06.650Z,2.63
2023-05-18T05:43:34.204Z,2.78
2023-05-18T05:46:01.877Z,2.83
2023-05-18T05:48:28.821Z,3.00
2023-05-18T05:50:55.642Z,2.58
2023-05-18T05:53:23.501Z,2.95
2023-05-18T05:55:50.529Z,2.95
2023-05-18T05:58:23.874Z,2.70
2023-05-18T06:00:54.998Z,2.70
2023-05-18T06:03:22.014Z,2.42
2023-05-18T06:05:49.417Z,2.75
2023-05-18T06:08:18.532Z,2.97
2023-05-18T06:10:47.883Z,2.80
2023-05-18T06:13:14.651Z,3.30
2023-05-18T06:15:47.082Z,3.35
2023-05-18T06:18:14.523Z,3.60
2023-05-18T06:20:41.485Z,3.25
2023-05-18T06:23:08.432Z,3.20
2023-05-18T06:25:53.325Z,4.20
2023-05-18T06:28:40.509Z,3.08
2023-05-18T06:31:25.986Z,3.47
2023-05-18T06:34:16.128Z,3.20
2023-05-18T06:36:42.873Z,3.55
2023-05-18T06:39:09.791Z,2.75
2023-05-18T06:41:36.448Z,3.30
2023-05-18T06:44:03.397Z,2.70
2023-05-18T06:46:36.583Z,3.05
2023-05-18T06:49:10.505Z,2.95
2023-05-18T06:51:37.136Z,2.50
2023-05-18T06:54:04.342Z,2.65
2023-05-18T06:56:31.122Z,2.53
2023-05-18T06:59:00.203Z,2.25
2023-05-18T07:01:28.234Z,2.45
2023-05-18T07:03:58.517Z,2.60
2023-05-18T07:06:25.707Z,2.47
2023-05-18T07:08:52.390Z,2.10
2023-05-18T07:11:19.092Z,7.68
2023-05-18T07:13:45.836Z,2.45
2023-05-18T07:16:13.998Z,2.30
2023-05-18T07:18:43.366Z,1.88
2023-05-18T07:21:10.266Z,1.95
2023-05-18T07:23:37.103Z,1.88
2023-05-18T07:26:03.934Z,2.08
2023-05-18T07:28:30.582Z,1.70
2023-05-18T07:31:00.364Z,1.70
2023-05-18T07:33:27.162Z,1.77
2023-05-18T07:35:55.879Z,1.92
2023-05-18T07:38:22.592Z,1.67
2023-05-18T07:40:49.357Z,1.67
2023-05-18T07:43:16.164Z,1.98
2023-05-18T07:45:42.810Z,1.52
2023-05-18T07:48:09.719Z,2.00
2023-05-18T07:50:40.139Z,2.00
2023-05-18T07:53:06.804Z,1.92
2023-05-18T07:55:33.668Z,1.90
2023-05-18T07:58:01.120Z,2.33
2023-05-18T08:00:28.198Z,2.20
2023-05-18T08:02:55.005Z,2.30
2023-05-18T08:05:22.736Z,2.50
2023-05-18T08:07:54.698Z,2.20
2023-05-18T08:10:21.526Z,2.45
2023-05-18T08:12:48.223Z,2.13
2023-05-18T08:15:14.983Z,2.65
2023-05-18T08:17:41.762Z,3.10
2023-05-18T08:20:10.458Z,2.92
2023-05-18T08:22:37.772Z,2.63
2023-05-18T08:25:07.100Z,2.70
2023-05-18T08:27:33.940Z,2.60
2023-05-18T08:30:00.726Z,2.90
2023-05-18T08:32:30.413Z,2.90
2023-05-18T08:35:02.986Z,2.95
2023-05-18T08:38:13.058Z,2.63
2023-05-18T08:41:20.078Z,3.17
2023-05-18T08:44:10.014Z,2.90
2023-05-18T08:49:53.718Z,3.17
2023-05-18T08:52:28.977Z,3.13
2023-05-18T08:55:27.372Z,4.30
2023-05-18T08:58:00.168Z,3.78
2023-05-18T09:00:31.829Z,4.20
2023-05-18T09:03:02.046Z,4.03
2023-05-18T09:05:29.344Z,3.75
2023-05-18T09:08:24.440Z,3.53
2023-05-18T09:10:52.553Z,4.32
2023-05-18T09:13:48.823Z,4.10
2023-05-18T09:16:18.375Z,4.18
2023-05-18T09:19:00.731Z,5.05
2023-05-18T09:21:59.552Z,5.88
2023-05-18T09:24:59.609Z,4.88
2023-05-18T09:29:57.738Z,4.97
2023-05-18T09:32:30.792Z,4.85
2023-05-18T09:35:18.832Z,4.50
2023-05-18T09:37:56.464Z,4.65
2023-05-18T09:40:29.808Z,4.47
2023-05-18T09:42:59.601Z,4.90
2023-05-18T09:45:55.227Z,3.90
2023-05-18T09:48:32.676Z,3.55
2023-05-18T09:51:08.471Z,4.82
2023-05-18T09:53:37.617Z,3.90
2023-05-18T09:56:17.457Z,4.28
2023-05-18T09:58:45.474Z,4.78
2023-05-18T10:01:34.017Z,4.20
2023-05-18T10:04:09.349Z,3.92
2023-05-18T10:06:54.588Z,4.00
2023-05-18T10:09:24.621Z,3.78
2023-05-18T10:12:31.690Z,4.88
2023-05-18T10:14:59.118Z,4.10
2023-05-18T10:17:39.395Z,3.90
2023-05-18T10:20:17.408Z,4.38
2023-05-18T10:23:09.390Z,3.88
2023-05-18T10:25:46.128Z,4.15
2023-05-18T10:28:27.143Z,4.40
2023-05-18T10:31:07.164Z,4.15
2023-05-18T10:33:39.007Z,4.45
2023-05-18T10:36:07.655Z,4.93
2023-05-18T10:38:39.856Z,4.63
2023-05-18T10:41:08.114Z,4.50
2023-05-18T10:43:36.624Z,4.10
2023-05-18T10:46:09.172Z,4.25
2023-05-18T10:48:40.522Z,4.25
2023-05-18T10:51:09.072Z,4.45
2023-05-18T10:53:37.012Z,4.00
2023-05-18T10:56:04.120Z,4.55
2023-05-18T10:58:43.395Z,4.10
2023-05-18T11:01:11.921Z,3.78
2023-05-18T11:03:42.645Z,4.32
2023-05-18T11:06:16.008Z,3.72
2023-05-18T11:08:52.172Z,3.67
2023-05-18T11:11:31.938Z,4.32
2023-05-18T11:14:07.001Z,3.97
2023-05-18T11:16:40.955Z,4.15
2023-05-18T11:19:19.249Z,4.20
2023-05-18T11:21:49.255Z,3.70
2023-05-18T11:28:37.598Z,4.50
2023-05-18T11:31:46.316Z,3.83
2023-05-18T11:34:39.616Z,4.00
2023-05-18T11:38:39.387Z,3.60
2023-05-18T11:40:54.250Z,4.32
2023-05-18T11:43:32.047Z,3.67
2023-05-18T11:46:01.092Z,3.83
2023-05-18T11:48:34.745Z,3.80
2023-05-18T11:51:09.434Z,4.43
2023-05-18T11:53:38.642Z,3.88
2023-05-18T11:56:51.732Z,3.40
2023-05-18T11:59:33.980Z,3.67
2023-05-18T12:02:18.719Z,4.20
2023-05-18T12:05:01.492Z,4.38
2023-05-18T12:07:30.544Z,3.85
2023-05-18T12:10:12.955Z,4.70
2023-05-18T12:12:43.999Z,4.15
2023-05-18T12:15:12.070Z,3.67
2023-05-18T12:17:47.366Z,4.13
2023-05-18T12:20:48.707Z,4.07
2023-05-18T12:23:21.599Z,3.87
2023-05-18T12:25:50.932Z,3.90
2023-05-18T12:28:18.988Z,4.35
2023-05-18T12:30:54.236Z,3.80
2023-05-18T12:33:23.989Z,4.30
2023-05-18T12:35:54.760Z,3.95
2023-05-18T12:38:28.562Z,4.30
2023-05-18T12:41:14.620Z,4.03
2023-05-18T12:43:44.041Z,4.18
2023-05-18T12:46:20.927Z,4.00
2023-05-18T12:49:08.254Z,3.90
2023-05-18T12:51:40.178Z,3.60
2023-05-18T12:54:11.848Z,3.80
2023-05-18T12:57:02.056Z,3.72
2023-05-18T12:59:32.082Z,3.28
2023-05-18T13:02:01.708Z,3.60
2023-05-18T13:04:37.651Z,3.80
2023-05-18T13:07:08.367Z,3.80
2023-05-18T13:09:36.646Z,4.00
2023-05-18T13:12:07.954Z,3.67
2023-05-18T13:14:39.303Z,3.60
2023-05-18T13:17:08.403Z,3.30
2023-05-18T13:19:36.675Z,3.65
2023-05-18T13:22:06.194Z,3.20
2023-05-18T13:24:33.080Z,3.50
2023-05-18T13:27:00.006Z,3.60
2023-05-18T13:29:29.308Z,3.65
2023-05-18T13:31:58.458Z,3.33
2023-05-18T13:34:25.207Z,3.28
2023-05-18T13:36:52.125Z,3.30
2023-05-18T13:39:18.931Z,3.28
2023-05-18T13:41:45.756Z,3.70
2023-05-18T13:44:14.986Z,3.47
2023-05-18T13:46:41.807Z,3.38
2023-05-18T13:49:09.376Z,3.83
2023-05-18T13:51:38.815Z,3.75
2023-05-18T13:54:05.743Z,4.07
2023-05-18T13:56:32.416Z,3.28
2023-05-18T13:58:59.081Z,4.05
2023-05-18T14:01:25.994Z,3.85
2023-05-18T14:03:52.757Z,3.60
2023-05-18T14:06:25.585Z,3.88
2023-05-18T14:08:53.800Z,3.63
2023-05-18T14:11:21.589Z,3.53
2023-05-18T14:13:48.430Z,3.80
2023-05-18T14:16:15.233Z,4.20
2023-05-18T14:18:41.955Z,3.80
2023-05-18T14:21:08.687Z,4.03
2023-05-18T14:23:35.643Z,3.95
2023-05-18T14:26:02.335Z,3.72
2023-05-18T14:28:31.362Z,3.65
2023-05-18T14:31:15.783Z,3.80
2023-05-18T14:33:48.708Z,3.65
2023-05-18T14:36:15.453Z,3.90
2023-05-18T14:38:43.420Z,4.30
2023-05-18T14:41:10.204Z,3.83
2023-05-18T14:43:36.866Z,4.13
2023-05-18T14:48:33.361Z,4.30
2023-05-18T14:51:00.022Z,4.55
2023-05-18T14:53:26.726Z,4.57
2023-05-18T14:55:53.413Z,4.20
2023-05-18T14:58:20.666Z,4.38
2023-05-18T15:00:47.653Z,4.68
2023-05-18T15:03:14.491Z,4.28
2023-05-18T15:05:44.161Z,4.93
2023-05-18T15:08:20.666Z,4.75
2023-05-18T15:10:49.956Z,4.50
2023-05-18T15:13:23.848Z,4.68
2023-05-18T15:15:51.121Z,5.32
2023-05-18T15:18:18.127Z,4.32
2023-05-18T15:20:49.064Z,5.55
2023-05-18T15:23:25.905Z,5.20
2023-05-18T15:26:09.752Z,5.30
2023-05-18T15:28:44.890Z,4.93
2023-05-18T15:31:20.722Z,5.22
2023-05-18T15:33:47.851Z,5.13
2023-05-18T15:36:14.580Z,5.03
2023-05-18T15:38:41.498Z,5.05
2023-05-18T15:41:08.748Z,4.70
2023-05-18T15:43:36.804Z,5.10
2023-05-18T15:46:03.711Z,7.15
2023-05-18T15:48:30.652Z,5.35
2023-05-18T15:50:57.563Z,5.60
2023-05-18T15:53:24.396Z,7.05
2023-05-18T15:55:57.484Z,6.10
2023-05-18T15:58:26.658Z,5.30
2023-05-18T16:00:53.820Z,5.60
2023-05-18T16:03:21.096Z,5.28
2023-05-18T16:05:48.056Z,5.50
2023-05-18T16:08:15.053Z,5.30
2023-05-18T16:10:43.584Z,6.20
2023-05-18T16:13:10.501Z,6.35
2023-05-18T16:15:39.130Z,6.07
2023-05-18T16:18:10.780Z,5.78
2023-05-18T16:20:42.419Z,5.70
2023-05-18T16:23:16.954Z,5.78
2023-05-18T16:25:44.278Z,5.35
2023-05-18T16:28:11.265Z,5.38
2023-05-18T16:30:39.620Z,5.68
2023-05-18T16:33:06.508Z,6.20
2023-05-18T16:35:33.598Z,6.65
2023-05-18T16:38:04.186Z,6.03
2023-05-18T16:40:31.309Z,5.78
2023-05-18T16:42:58.326Z,5.93
2023-05-18T16:45:27.902Z,6.15
2023-05-18T16:47:55.056Z,6.22
2023-05-18T16:50:22.161Z,5.13
2023-05-18T16:52:49.068Z,5.90
2023-05-18T16:55:19.755Z,6.20
2023-05-18T16:57:46.819Z,5.15
2023-05-18T17:00:17.570Z,6.05
2023-05-18T17:02:45.075Z,4.95
2023-05-18T17:05:12.307Z,5.05
2023-05-18T17:07:39.467Z,5.10
2023-05-18T17:10:07.117Z,5.18
2023-05-18T17:12:33.986Z,4.60
2023-05-18T17:15:02.766Z,5.10
2023-05-18T17:17:32.522Z,4.65
2023-05-18T17:19:59.336Z,4.60
2023-05-18T17:22:26.227Z,4.72
2023-05-18T17:24:53.057Z,4.80
2023-05-18T17:27:19.935Z,5.00
2023-05-18T17:29:46.748Z,4.03
2023-05-18T17:32:14.501Z,4.80
2023-05-18T17:34:41.345Z,4.80
2023-05-18T17:37:11.453Z,5.00
2023-05-18T17:39:43.207Z,4.60
2023-05-18T17:42:10.902Z,4.72
2023-05-18T17:44:37.581Z,4.60
2023-05-18T17:47:04.883Z,4.90
2023-05-18T17:49:32.584Z,4.50
2023-05-18T17:51:59.280Z,5.00
2023-05-18T17:54:35.952Z,4.97
2023-05-18T17:57:06.441Z,4.78
2023-05-18T17:59:35.528Z,5.00
2023-05-18T18:02:04.392Z,5.20
2023-05-18T18:04:44.464Z,5.43
2023-05-18T18:07:14.735Z,5.70
2023-05-18T18:09:41.594Z,5.57
2023-05-18T18:12:08.973Z,5.45
2023-05-18T18:14:35.785Z,5.40
2023-05-18T18:17:03.622Z,5.10
2023-05-18T18:19:34.322Z,5.63
2023-05-18T18:22:01.311Z,5.85
2023-05-18T18:24:28.347Z,5.85
2023-05-18T18:26:55.878Z,5.95
2023-05-18T18:29:23.722Z,6.55
2023-05-18T18:31:50.918Z,6.03
2023-05-18T18:34:20.375Z,6.45
2023-05-18T18:36:47.852Z,6.47
2023-05-18T18:39:21.811Z,6.95
2023-05-18T18:41:48.983Z,6.25
2023-05-18T18:44:15.993Z,6.25
2023-05-18T18:46:42.913Z,7.03
2023-05-18T18:49:12.670Z,6.53
2023-05-18T18:51:39.862Z,6.07
2023-05-18T18:54:08.707Z,6.22
2023-05-18T18:56:37.967Z,5.72
2023-05-18T18:59:05.587Z,5.78
2023-05-18T19:01:32.802Z,7.03
2023-05-18T19:03:59.760Z,6.55
2023-05-18T19:06:34.621Z,6.68
2023-05-18T19:09:01.771Z,6.32
2023-05-18T19:11:28.978Z,6.57
2023-05-18T19:13:56.611Z,5.68
2023-05-18T19:16:23.909Z,6.05
2023-05-18T19:18:51.155Z,6.15
2023-05-18T19:21:18.197Z,6.75
2023-05-18T19:23:47.135Z,5.60
2023-05-18T19:26:24.148Z,6.30
2023-05-18T19:28:53.263Z,7.22
2023-05-18T19:31:20.162Z,6.60
2023-05-18T19:33:46.898Z,7.03
2023-05-18T19:36:17.582Z,6.57
2023-05-18T19:38:46.567Z,7.22
2023-05-18T19:41:15.000Z,7.90
2023-05-18T19:43:41.810Z,7.97
2023-05-18T19:46:08.505Z,7.35
2023-05-18T19:48:35.315Z,8.15
2023-05-18T19:51:04.037Z,8.25
2023-05-18T19:53:32.923Z,8.73
2023-05-18T19:56:03.435Z,8.68
2023-05-18T19:58:30.730Z,9.80
2023-05-18T20:00:57.936Z,8.85
2023-05-18T20:03:25.366Z,9.27
2023-05-18T20:05:52.252Z,8.68
2023-05-18T20:08:21.633Z,8.88
2023-05-18T20:10:48.906Z,9.23
2023-05-18T20:13:15.905Z,8.85
2023-05-18T20:15:43.794Z,8.93
2023-05-18T20:18:10.776Z,8.98
2023-05-18T20:20:40.060Z,8.95
2023-05-18T20:23:22.572Z,8.68
2023-05-18T20:26:04.455Z,9.13
2023-05-18T20:28:46.649Z,8.45
2023-05-18T20:32:06.135Z,8.68
2023-05-18T20:35:16.949Z,8.82
2023-05-18T20:37:44.175Z,8.73
2023-05-18T20:40:13.381Z,8.18
2023-05-18T20:42:40.814Z,8.23
2023-05-18T20:45:10.059Z,8.95
2023-05-18T20:47:42.019Z,10.52
2023-05-18T20:50:09.845Z,8.18
2023-05-18T20:52:38.036Z,8.20
2023-05-18T20:55:07.461Z,8.70
2023-05-18T20:57:34.805Z,8.02
2023-05-18T21:00:01.758Z,7.93
2023-05-18T21:02:33.317Z,7.82
2023-05-18T21:05:06.416Z,7.60
2023-05-18T21:07:35.143Z,7.40
2023-05-18T21:10:17.653Z,7.55
2023-05-18T21:13:01.273Z,8.13
2023-05-18T21:15:40.786Z,7.80
2023-05-18T21:18:11.406Z,7.85
2023-05-18T21:20:43.048Z,7.78
2023-05-18T21:23:10.068Z,7.40
2023-05-18T21:25:39.472Z,7.65
2023-05-18T21:28:26.754Z,7.05
2023-05-18T21:30:54.685Z,7.93
2023-05-18T21:33:22.614Z,7.60
2023-05-18T21:35:49.566Z,7.10
2023-05-18T21:38:17.329Z,6.93
2023-05-18T21:40:53.284Z,7.80
2023-05-18T21:43:20.099Z,7.10
2023-05-18T21:45:47.337Z,7.65
2023-05-18T21:48:14.356Z,7.05
2023-05-18T21:50:41.498Z,7.25
2023-05-18T21:53:08.268Z,7.10
2023-05-18T21:55:37.181Z,7.43
2023-05-18T21:58:04.191Z,7.40
2023-05-18T22:00:38.233Z,7.28
2023-05-18T22:03:05.244Z,7.20
2023-05-18T22:05:31.998Z,7.45
2023-05-18T22:07:59.215Z,7.47
2023-05-18T22:10:25.998Z,7.75
2023-05-18T22:12:52.890Z,8.07
2023-05-18T22:15:22.544Z,9.10
2023-05-18T22:17:49.604Z,8.27
2023-05-18T22:20:17.241Z,8.02
2023-05-18T22:22:44.317Z,8.07
2023-05-18T22:25:11.081Z,7.97
2023-05-18T22:27:38.593Z,7.88
2023-05-18T22:30:06.791Z,6.57
2023-05-18T22:32:33.871Z,7.97
2023-05-18T22:35:04.098Z,7.15
2023-05-18T22:37:31.531Z,7.65
2023-05-18T22:39:58.191Z,7.18
2023-05-18T22:42:24.828Z,7.35
2023-05-18T22:44:54.937Z,7.75
2023-05-18T22:47:25.806Z,7.90
2023-05-18T22:49:58.055Z,7.68
2023-05-18T22:52:26.593Z,7.68
2023-05-18T22:55:05.070Z,8.35
2023-05-18T22:57:35.765Z,7.88
2023-05-18T23:00:02.713Z,9.00
2023-05-18T23:02:29.550Z,7.55
2023-05-18T23:04:56.375Z,8.32
2023-05-18T23:07:25.223Z,8.57
2023-05-18T23:09:54.914Z,9.35
2023-05-18T23:12:22.332Z,9.07
2023-05-18T23:14:49.956Z,9.38
2023-05-18T23:17:18.654Z,10.20
2023-05-18T23:19:48.280Z,8.93
2023-05-18T23:22:14.986Z,8.60
2023-05-18T23:24:43.471Z,10.20
2023-05-18T23:27:10.980Z,9.65
2023-05-18T23:29:38.530Z,9.60
2023-05-18T23:32:05.751Z,10.45
2023-05-18T23:34:32.734Z,9.93
2023-05-18T23:37:03.554Z,9.02
2023-05-18T23:39:30.870Z,9.57
2023-05-18T23:41:59.479Z,10.00
2023-05-18T23:44:29.996Z,9.95
2023-05-18T23:47:05.070Z,9.90
2023-05-18T23:49:34.748Z,10.48
2023-05-18T23:52:07.691Z,9.55
2023-05-18T23:54:37.344Z,9.38
2023-05-18T23:57:10.349Z,9.35
2023-05-18T23:59:42.177Z,9.18
